Time;durP1;ratioP1;P1;durP2;ratioP2;P2;SDS_P1;SDS_P2;PMS_P1;PMS_P2;Temp;Humidity;BMP_temperature;BMP_pressure;BME280_temperature;BME280_humidity;BME280_pressure;Samples;Min_cycle;Max_cycle;Signal;HPM_P1;HPM_P2
2022/10/06 00:01:12;;;;;;;5.57;3.90;;;14.60;1.00;;;;;;5072964;28;20494;-87
2022/10/06 00:03:38;;;;;;;10.77;4.20;;;14.60;1.00;;;;;;5072804;28;20437;-87
2022/10/06 00:06:28;;;;;;;7.23;3.53;;;14.60;1.00;;;;;;5089807;28;20440;-87
2022/10/06 00:09:22;;;;;;;6.13;4.47;;;14.60;1.00;;;;;;5072354;28;20765;-87
2022/10/06 00:15:12;;;;;;;9.23;4.30;;;14.50;1.00;;;;;;5074964;28;20441;-82
2022/10/06 00:24:34;;;;;;;4.40;3.60;;;14.60;1.00;;;;;;5084093;28;20470;-83
2022/10/06 00:33:44;;;;;;;8.20;3.90;;;14.60;1.00;;;;;;5074205;28;20890;-82
2022/10/06 00:40:09;;;;;;;11.63;4.20;;;14.70;1.00;;;;;;5090444;28;20438;-87
2022/10/06 00:46:28;;;;;;;11.43;3.80;;;14.70;1.00;;;;;;5089239;28;20453;-87
2022/10/06 00:49:34;;;;;;;7.80;4.00;;;14.80;1.00;;;;;;5080804;28;20490;-88
2022/10/06 00:52:29;;;;;;;8.23;4.23;;;14.80;1.00;;;;;;5080317;28;21002;-88
2022/10/06 01:01:45;;;;;;;6.50;3.87;;;14.80;1.00;;;;;;5080082;28;20938;-82
2022/10/06 01:07:32;;;;;;;5.80;4.03;;;14.80;1.00;;;;;;5078822;28;20353;-82
2022/10/06 01:13:18;;;;;;;6.33;3.80;;;14.90;1.00;;;;;;5088883;28;20214;-82
2022/10/06 01:16:06;;;;;;;7.83;3.73;;;14.90;1.00;;;;;;5083800;28;20439;-82
2022/10/06 01:25:17;;;;;;;12.40;3.77;;;15.00;1.00;;;;;;5078084;28;20462;-87
2022/10/06 01:27:53;;;;;;;6.53;3.67;;;15.10;1.00;;;;;;5084676;28;20428;-87
2022/10/06 01:33:41;;;;;;;5.93;3.53;;;15.20;1.00;;;;;;5076445;28;20468;-88
2022/10/06 01:42:50;;;;;;;7.27;3.83;;;15.40;1.00;;;;;;5095094;28;20422;-88
2022/10/06 01:52:00;;;;;;;8.40;4.37;;;15.70;1.00;;;;;;5087097;28;20458;-87
2022/10/06 01:55:10;;;;;;;9.00;3.30;;;15.70;1.00;;;;;;5093204;28;20408;-87
2022/10/06 02:00:57;;;;;;;6.90;3.40;;;15.90;1.00;;;;;;5081959;28;20534;-82
2022/10/06 02:10:10;;;;;;;8.97;4.27;;;16.20;1.00;;;;;;5086596;28;20439;-83
2022/10/06 02:19:19;;;;;;;10.30;3.60;;;16.30;1.00;;;;;;5078626;28;20420;-81
2022/10/06 02:21:46;;;;;;;9.30;3.83;;;16.30;1.00;;;;;;5076800;28;20410;-84
2022/10/06 02:27:34;;;;;;;14.13;3.80;;;16.40;1.00;;;;;;5095436;28;20924;-87
2022/10/06 02:30:28;;;;;;;3.90;3.20;;;16.40;1.00;;;;;;5094438;28;20388;-87
2022/10/06 02:36:28;;;;;;;5.67;3.30;;;16.50;1.00;;;;;;5077549;28;20383;-86
2022/10/06 02:38:55;;;;;;;5.10;3.07;;;16.40;1.00;;;;;;5078464;28;20445;-87
2022/10/06 02:44:42;;;;;;;6.93;3.00;;;16.40;1.00;;;;;;5081271;28;20974;-87
2022/10/06 02:50:30;;;;;;;8.40;3.50;;;16.40;1.00;;;;;;5083669;28;20380;-87
2022/10/06 02:56:58;;;;;;;6.90;2.97;;;16.50;1.00;;;;;;5078387;28;20189;-87
2022/10/06 02:59:28;;;;;;;13.87;3.87;;;16.50;1.00;;;;;;5077495;28;20400;-87
2022/10/06 03:01:54;;;;;;;5.67;3.07;;;16.50;1.00;;;;;;5090603;28;20474;-87
2022/10/06 03:04:19;;;;;;;4.20;2.70;;;16.50;1.00;;;;;;5085435;28;20961;-87
2022/10/06 03:10:34;;;;;;;4.77;2.57;;;16.50;1.00;;;;;;5084722;28;20206;-87
2022/10/06 03:23:22;;;;;;;4.37;1.90;;;16.20;1.00;;;;;;5081018;28;20368;-87
2022/10/06 03:39:15;;;;;;;5.00;2.37;;;16.20;1.00;;;;;;5074443;28;20499;-87
2022/10/06 03:45:03;;;;;;;7.03;1.80;;;16.20;1.00;;;;;;5073440;28;20221;-81
2022/10/06 03:47:58;;;;;;;1.80;1.70;;;16.10;1.00;;;;;;5077380;28;20436;-83
2022/10/06 03:54:04;;;;;;;1.67;1.57;;;16.10;1.00;;;;;;5077803;28;20476;-81
2022/10/06 03:56:52;;;;;;;1.50;1.13;;;16.00;1.00;;;;;;5077714;28;20450;-87
2022/10/06 04:06:06;;;;;;;10.17;1.37;;;16.00;1.00;;;;;;5074952;28;20376;-87
2022/10/06 04:09:22;;;;;;;2.47;1.27;;;16.00;1.00;;;;;;5073023;28;20432;-87
2022/10/06 04:11:48;;;;;;;12.10;1.70;;;16.00;1.00;;;;;;5073018;28;20393;-87
2022/10/06 04:14:16;;;;;;;6.53;1.80;;;16.00;1.00;;;;;;5077121;28;20416;-80
2022/10/06 04:20:10;;;;;;;4.03;1.67;;;16.00;1.00;;;;;;5086727;28;20378;-79
2022/10/06 04:25:59;;;;;;;6.50;1.20;;;16.00;1.00;;;;;;5073586;28;20384;-79
2022/10/06 04:28:59;;;;;;;1.00;0.70;;;15.90;1.00;;;;;;5086842;28;20469;-78
2022/10/06 04:31:52;;;;;;;2.20;0.97;;;15.90;1.00;;;;;;5073091;28;20400;-78
2022/10/06 04:37:40;;;;;;;2.47;0.87;;;15.90;1.00;;;;;;5082750;28;20456;-78
2022/10/06 04:40:10;;;;;;;2.30;1.00;;;15.80;1.00;;;;;;5094574;28;20501;-77
2022/10/06 04:43:28;;;;;;;2.83;1.10;;;15.80;1.00;;;;;;5079477;28;20403;-77
2022/10/06 04:46:05;;;;;;;9.20;0.90;;;15.80;1.00;;;;;;5077084;28;20387;-77
2022/10/06 04:48:34;;;;;;;3.33;0.60;;;15.80;1.00;;;;;;5078264;28;20537;-77
2022/10/06 04:51:17;;;;;;;3.03;0.77;;;15.80;1.00;;;;;;5084580;28;20817;-77
2022/10/06 04:54:17;;;;;;;17.03;1.70;;;15.80;1.00;;;;;;5082401;28;20503;-77
2022/10/06 04:57:04;;;;;;;5.73;1.00;;;15.70;1.00;;;;;;5083385;28;20415;-77
2022/10/06 05:02:19;;;;;;;2.83;0.77;;;15.70;1.00;;;;;;5081287;28;20438;-77
2022/10/06 05:04:58;;;;;;;0.90;0.70;;;15.70;1.00;;;;;;5080822;28;20459;-76
2022/10/06 05:07:24;;;;;;;3.47;0.90;;;15.60;1.00;;;;;;5076557;28;20468;-77
2022/10/06 05:09:52;;;;;;;5.87;1.37;;;15.50;1.00;;;;;;5090268;28;20787;-78
2022/10/06 05:12:22;;;;;;;9.20;1.60;;;15.40;1.00;;;;;;5091532;28;20684;-77
2022/10/06 05:14:52;;;;;;;7.97;1.50;;;15.30;1.00;;;;;;5080182;28;20425;-77
2022/10/06 05:17:40;;;;;;;2.30;1.10;;;15.20;1.00;;;;;;5076358;28;20384;-77
2022/10/06 05:20:22;;;;;;;3.40;1.00;;;15.00;1.00;;;;;;5087235;28;20496;-76
2022/10/06 05:22:58;;;;;;;7.03;1.13;;;14.90;1.00;;;;;;5094230;28;20406;-77
2022/10/06 05:25:50;;;;;;;3.13;1.10;;;14.70;1.00;;;;;;5092605;28;20486;-76
2022/10/06 05:28:40;;;;;;;2.80;0.70;;;14.50;1.00;;;;;;5080031;28;20435;-77
2022/10/06 05:31:17;;;;;;;3.00;0.90;;;14.40;1.00;;;;;;5081594;28;20456;-78
2022/10/06 05:37:05;;;;;;;3.00;1.00;;;14.10;1.00;;;;;;5094095;28;20391;-77
2022/10/06 05:39:34;;;;;;;1.20;0.90;;;13.90;1.00;;;;;;5078611;28;20395;-77
2022/10/06 05:45:22;;;;;;;7.93;1.30;;;13.80;1.00;;;;;;5079383;28;20412;-77
2022/10/06 05:48:04;;;;;;;3.73;1.13;;;13.70;1.00;;;;;;5082437;28;20950;-77
2022/10/06 05:51:16;;;;;;;10.20;1.47;;;13.60;1.00;;;;;;5089529;28;20190;-77
2022/10/06 05:53:47;;;;;;;2.60;0.80;;;13.60;1.00;;;;;;5075795;28;20480;-77
2022/10/06 05:56:21;;;;;;;6.43;0.93;;;13.60;1.00;;;;;;5079533;28;20431;-76
2022/10/06 05:59:10;;;;;;;5.10;1.00;;;13.60;1.00;;;;;;5080319;28;20449;-77
2022/10/06 06:01:41;;;;;;;3.07;0.83;;;13.60;1.00;;;;;;5083923;28;20439;-76
2022/10/06 06:04:09;;;;;;;2.80;0.80;;;13.60;1.00;;;;;;5082567;28;20760;-77
2022/10/06 06:06:49;;;;;;;3.27;0.90;;;13.70;1.00;;;;;;5083716;28;20401;-77
2022/10/06 06:09:17;;;;;;;8.60;1.17;;;13.70;1.00;;;;;;5089543;28;20424;-76
2022/10/06 06:11:46;;;;;;;6.43;1.30;;;13.80;1.00;;;;;;5078324;28;20417;-78
2022/10/06 06:14:14;;;;;;;9.80;1.70;;;13.70;1.00;;;;;;5081610;28;20938;-77
2022/10/06 06:16:41;;;;;;;4.27;1.10;;;13.70;1.00;;;;;;5080571;28;20467;-77
2022/10/06 06:19:08;;;;;;;3.30;0.70;;;13.70;1.00;;;;;;5081699;28;20896;-77
2022/10/06 06:21:37;;;;;;;1.70;1.00;;;13.70;1.00;;;;;;5075992;28;20773;-77
2022/10/06 06:24:03;;;;;;;8.43;0.90;;;13.70;1.00;;;;;;5078656;28;20414;-77
2022/10/06 06:26:31;;;;;;;17.67;1.67;;;13.70;1.00;;;;;;5085467;28;20512;-77
2022/10/06 06:29:01;;;;;;;3.33;1.10;;;13.70;1.00;;;;;;5075449;28;20448;-77
2022/10/06 06:31:31;;;;;;;5.47;1.13;;;13.70;1.00;;;;;;5073907;28;20908;-77
2022/10/06 06:33:59;;;;;;;5.67;1.23;;;13.70;1.00;;;;;;5073848;28;20809;-77
2022/10/06 06:36:34;;;;;;;6.47;1.90;;;13.70;1.00;;;;;;5077264;28;20429;-77
2022/10/06 06:39:03;;;;;;;5.33;1.10;;;13.80;1.00;;;;;;5081290;28;20519;-77
2022/10/06 06:41:31;;;;;;;13.33;1.50;;;13.80;1.00;;;;;;5090047;28;20574;-77
2022/10/06 06:43:58;;;;;;;6.40;0.97;;;13.90;1.00;;;;;;5076529;28;20431;-77
2022/10/06 06:46:27;;;;;;;6.20;0.97;;;13.90;1.00;;;;;;5073764;28;20506;-78
2022/10/06 06:48:55;;;;;;;5.83;1.20;;;13.90;1.00;;;;;;5073421;28;20777;-77
2022/10/06 06:51:22;;;;;;;4.90;1.10;;;13.80;1.00;;;;;;5079395;28;20425;-77
2022/10/06 06:53:52;;;;;;;11.57;1.40;;;13.80;1.00;;;;;;5077715;28;20443;-77
2022/10/06 06:56:22;;;;;;;4.93;1.33;;;13.90;1.00;;;;;;5073843;28;20417;-77
2022/10/06 06:58:48;;;;;;;7.33;1.30;;;13.90;1.00;;;;;;5072783;28;20413;-77
2022/10/06 07:01:16;;;;;;;5.67;1.30;;;13.90;1.00;;;;;;5079943;28;20464;-77
2022/10/06 07:03:44;;;;;;;5.47;1.43;;;14.00;1.00;;;;;;5074718;28;20413;-77
2022/10/06 07:06:12;;;;;;;3.43;1.10;;;14.00;1.00;;;;;;5073694;28;20441;-77
2022/10/06 07:08:41;;;;;;;8.27;1.40;;;14.10;1.00;;;;;;5073489;28;20817;-77
2022/10/06 07:11:17;;;;;;;13.90;1.30;;;14.10;1.00;;;;;;5079128;28;20417;-77
2022/10/06 07:13:43;;;;;;;3.40;1.20;;;14.20;1.00;;;;;;5073449;28;20543;-77
2022/10/06 07:27:09;;;;;;;6.10;1.10;;;14.60;1.00;;;;;;5073490;28;20378;-77
2022/10/06 07:29:35;;;;;;;5.30;0.83;;;14.70;1.00;;;;;;5073073;28;20805;-77
2022/10/06 07:32:00;;;;;;;7.67;1.33;;;14.90;1.00;;;;;;5072803;28;20459;-77
2022/10/06 07:34:29;;;;;;;4.63;1.10;;;14.90;1.00;;;;;;5081806;28;20634;-77
2022/10/06 07:36:57;;;;;;;3.00;1.00;;;15.00;1.00;;;;;;5072782;28;20237;-77
2022/10/06 07:39:23;;;;;;;16.20;1.40;;;15.20;1.00;;;;;;5077410;28;20462;-77
2022/10/06 07:41:48;;;;;;;5.00;1.10;;;15.30;1.00;;;;;;5084774;28;20474;-77
2022/10/06 07:44:14;;;;;;;3.00;1.23;;;15.30;1.00;;;;;;5084362;28;20214;-77
2022/10/06 07:46:39;;;;;;;5.67;0.80;;;15.50;1.00;;;;;;5083411;28;20257;-77
2022/10/06 07:49:05;;;;;;;7.20;1.20;;;15.50;1.00;;;;;;5072672;28;20178;-77
2022/10/06 07:51:41;;;;;;;6.33;1.60;;;15.50;1.00;;;;;;5074415;28;20178;-77
2022/10/06 07:54:10;;;;;;;9.93;1.43;;;15.70;1.00;;;;;;5073174;28;20189;-77
2022/10/06 07:56:40;;;;;;;11.17;1.20;;;15.70;1.00;;;;;;5080061;28;20440;-77
2022/10/06 07:59:22;;;;;;;5.20;1.13;;;15.70;1.00;;;;;;5086002;28;21015;-77
2022/10/06 08:01:50;;;;;;;4.07;1.03;;;15.70;1.00;;;;;;5077084;28;20837;-77
2022/10/06 08:04:15;;;;;;;4.67;1.23;;;15.80;1.00;;;;;;5082820;28;20392;-77
2022/10/06 08:07:06;;;;;;;10.20;1.10;;;15.90;1.00;;;;;;5075758;28;20407;-78
2022/10/06 08:09:32;;;;;;;7.93;0.90;;;15.90;1.00;;;;;;5087685;28;20258;-77
2022/10/06 08:12:31;;;;;;;5.77;1.20;;;15.90;1.00;;;;;;5086541;28;20487;-77
2022/10/06 08:15:01;;;;;;;4.33;1.10;;;15.80;1.00;;;;;;5082971;28;20614;-77
2022/10/06 08:17:35;;;;;;;9.53;1.30;;;15.90;1.00;;;;;;5086663;28;20802;-77
2022/10/06 08:20:12;;;;;;;7.83;0.97;;;16.00;1.00;;;;;;5081703;28;20781;-77
2022/10/06 08:22:38;;;;;;;7.43;1.10;;;16.00;1.00;;;;;;5076589;28;20416;-79
2022/10/06 08:25:16;;;;;;;5.67;1.03;;;16.00;1.00;;;;;;5079827;28;20511;-77
2022/10/06 08:28:04;;;;;;;6.40;1.00;;;15.90;1.00;;;;;;5082613;28;20460;-77
2022/10/06 08:37:25;;;;;;;5.70;1.27;;;15.90;1.00;;;;;;5087306;28;20462;-78
2022/10/06 08:39:58;;;;;;;5.03;1.10;;;15.90;1.00;;;;;;5087966;28;20813;-77
2022/10/06 08:42:33;;;;;;;4.23;1.17;;;16.00;1.00;;;;;;5092725;28;20759;-77
2022/10/06 08:45:25;;;;;;;4.50;1.00;;;16.10;1.00;;;;;;5096945;28;20395;-77
2022/10/06 08:48:23;;;;;;;10.23;1.47;;;16.20;1.00;;;;;;5082256;28;20420;-77
2022/10/06 08:51:27;;;;;;;10.40;2.00;;;16.30;1.00;;;;;;5075661;28;20436;-77
2022/10/06 08:54:07;;;;;;;6.67;1.10;;;16.40;1.00;;;;;;5080949;28;20586;-77
2022/10/06 08:56:47;;;;;;;5.87;1.10;;;16.50;1.00;;;;;;5073561;28;20438;-77
2022/10/06 08:59:15;;;;;;;14.83;1.00;;;16.60;1.00;;;;;;5091548;28;20767;-77
2022/10/06 09:01:44;;;;;;;8.33;1.20;;;16.60;1.00;;;;;;5076381;28;20423;-77
2022/10/06 09:04:18;;;;;;;9.97;1.60;;;16.60;1.00;;;;;;5076402;28;20971;-78
2022/10/06 09:07:11;;;;;;;5.43;1.27;;;16.70;1.00;;;;;;5080804;28;20502;-78
2022/10/06 09:10:01;;;;;;;5.10;1.03;;;16.90;1.00;;;;;;5078668;28;20943;-78
2022/10/06 09:12:48;;;;;;;13.57;1.50;;;16.90;1.00;;;;;;5076113;28;20553;-76
2022/10/06 09:15:13;;;;;;;5.53;1.20;;;17.00;1.00;;;;;;5082042;28;20461;-76
2022/10/06 09:17:53;;;;;;;8.13;1.63;;;17.10;1.00;;;;;;5079334;28;20470;-80
2022/10/06 09:20:28;;;;;;;5.33;1.00;;;17.10;1.00;;;;;;5080271;28;20192;-78
2022/10/06 09:22:55;;;;;;;9.23;1.43;;;17.20;1.00;;;;;;5080149;28;20429;-78
2022/10/06 09:25:25;;;;;;;6.77;1.10;;;17.30;1.00;;;;;;5076078;28;20448;-77
2022/10/06 09:27:54;;;;;;;8.87;1.30;;;17.20;1.00;;;;;;5086882;28;20739;-77
2022/10/06 09:30:19;;;;;;;6.70;1.37;;;17.10;1.00;;;;;;5078966;28;20428;-77
2022/10/06 09:32:58;;;;;;;10.17;1.50;;;17.20;1.00;;;;;;5085005;28;20451;-78
2022/10/06 09:35:26;;;;;;;4.70;1.30;;;17.20;1.00;;;;;;5077291;28;20180;-77
2022/10/06 09:38:03;;;;;;;5.47;1.10;;;17.30;1.00;;;;;;5085358;28;20405;-78
2022/10/06 09:40:51;;;;;;;5.30;1.13;;;17.40;1.00;;;;;;5075739;28;20441;-77
2022/10/06 09:43:28;;;;;;;6.67;1.60;;;17.60;1.00;;;;;;5076684;28;20387;-78
2022/10/06 09:46:16;;;;;;;10.03;1.80;;;17.80;1.00;;;;;;5074778;28;20496;-77
2022/10/06 09:48:42;;;;;;;7.43;1.13;;;18.00;1.00;;;;;;5075369;28;20427;-77
2022/10/06 09:51:12;;;;;;;6.33;1.20;;;18.10;1.00;;;;;;5083888;28;20454;-77
2022/10/06 09:53:38;;;;;;;4.43;1.00;;;18.20;1.00;;;;;;5074509;28;20526;-77
2022/10/06 09:56:13;;;;;;;5.47;1.50;;;18.40;1.00;;;;;;5083089;28;20427;-77
2022/10/06 09:58:38;;;;;;;9.20;1.13;;;18.50;1.00;;;;;;5078008;28;20430;-77
2022/10/06 10:01:11;;;;;;;5.60;1.53;;;18.40;1.00;;;;;;5074441;28;20793;-77
2022/10/06 10:03:44;;;;;;;3.63;1.40;;;18.40;1.00;;;;;;5084989;28;20204;-77
2022/10/06 10:06:26;;;;;;;4.20;0.90;;;18.40;1.00;;;;;;5076967;28;20435;-77
2022/10/06 10:09:20;;;;;;;6.23;1.50;;;18.30;1.00;;;;;;5080837;28;20525;-77
2022/10/06 10:12:24;;;;;;;5.80;1.23;;;18.30;1.00;;;;;;5090038;28;20435;-77
2022/10/06 10:14:58;;;;;;;5.30;1.37;;;18.20;1.00;;;;;;5012579;28;20473;-77
2022/10/06 10:17:43;;;;;;;12.27;1.23;;;18.10;1.00;;;;;;5009090;28;20437;-77
2022/10/06 10:20:37;;;;;;;8.33;1.37;;;18.00;1.00;;;;;;5008038;28;20460;-77
2022/10/06 10:23:22;;;;;;;11.13;1.20;;;17.90;1.00;;;;;;4928931;29;20958;-77
2022/10/06 10:25:50;;;;;;;5.60;1.17;;;17.80;1.00;;;;;;4934109;29;20516;-78
2022/10/06 10:28:36;;;;;;;5.30;1.07;;;17.80;1.00;;;;;;4933594;29;20432;-78
2022/10/06 10:31:25;;;;;;;5.33;1.20;;;17.80;1.00;;;;;;4934212;29;20451;-77
2022/10/06 10:33:55;;;;;;;4.30;1.00;;;17.80;1.00;;;;;;4875288;29;20481;-77
2022/10/06 10:36:29;;;;;;;5.13;0.90;;;17.80;1.00;;;;;;4875708;29;20449;-77
2022/10/06 10:39:00;;;;;;;4.73;1.20;;;17.70;1.00;;;;;;4877191;29;20453;-77
2022/10/06 10:41:33;;;;;;;4.93;1.27;;;17.80;1.00;;;;;;4877104;29;20454;-78
2022/10/06 10:44:13;;;;;;;3.67;1.13;;;17.70;1.00;;;;;;4862675;29;20999;-78
2022/10/06 10:46:48;;;;;;;7.90;1.37;;;17.80;1.00;;;;;;4875167;29;20907;-78
2022/10/06 10:49:26;;;;;;;8.87;1.27;;;18.00;1.00;;;;;;4869525;29;20556;-78
2022/10/06 10:52:10;;;;;;;5.37;0.80;;;18.10;1.00;;;;;;4916172;29;20415;-78
2022/10/06 10:54:38;;;;;;;4.80;1.00;;;18.30;1.00;;;;;;4937460;28;20422;-77
2022/10/06 10:57:12;;;;;;;5.47;1.30;;;18.20;1.00;;;;;;4952676;28;20574;-77
2022/10/06 10:59:44;;;;;;;10.47;1.47;;;18.20;1.00;;;;;;4972856;28;20443;-78
2022/10/06 11:02:18;;;;;;;3.40;1.20;;;18.20;1.00;;;;;;5021356;28;20509;-78
2022/10/06 11:05:05;;;;;;;4.10;1.30;;;18.40;1.00;;;;;;5031145;28;20485;-77
2022/10/06 11:08:08;;;;;;;5.17;1.00;;;18.60;1.00;;;;;;5030100;28;20900;-77
2022/10/06 11:10:48;;;;;;;6.63;1.10;;;19.00;1.00;;;;;;4947442;28;21019;-78
2022/10/06 11:13:34;;;;;;;8.00;1.10;;;19.20;1.00;;;;;;4980444;28;20892;-78
2022/10/06 11:16:05;;;;;;;1.97;0.90;;;19.30;1.00;;;;;;4987575;28;20450;-78
2022/10/06 11:18:46;;;;;;;4.33;1.07;;;19.00;1.00;;;;;;4982815;28;20975;-78
2022/10/06 11:21:27;;;;;;;8.20;1.17;;;19.00;1.00;;;;;;4986350;28;20522;-77
2022/10/06 11:23:58;;;;;;;4.53;0.97;;;18.90;1.00;;;;;;4990640;28;20432;-77
2022/10/06 11:26:58;;;;;;;6.10;1.10;;;18.70;1.00;;;;;;4989278;28;20426;-77
2022/10/06 11:29:45;;;;;;;14.20;1.27;;;18.90;1.00;;;;;;4989026;28;20440;-77
2022/10/06 11:32:25;;;;;;;6.63;1.40;;;19.10;1.00;;;;;;4988816;28;20454;-78
2022/10/06 11:34:51;;;;;;;2.97;0.90;;;19.20;1.00;;;;;;4991300;28;20409;-77
2022/10/06 11:37:21;;;;;;;3.60;1.80;;;19.30;1.00;;;;;;4988539;28;20432;-77
2022/10/06 11:40:13;;;;;;;17.33;1.70;;;19.30;1.00;;;;;;4991138;28;20428;-77
2022/10/06 11:42:57;;;;;;;10.40;1.30;;;19.20;1.00;;;;;;4989400;28;20471;-77
2022/10/06 11:45:34;;;;;;;7.03;1.47;;;19.10;1.00;;;;;;4980021;28;20440;-77
2022/10/06 11:48:18;;;;;;;11.30;1.47;;;19.10;1.00;;;;;;5073608;28;20774;-77
2022/10/06 11:50:47;;;;;;;6.23;1.10;;;19.10;1.00;;;;;;5088604;28;20439;-77
2022/10/06 11:53:38;;;;;;;6.57;1.57;;;19.10;1.00;;;;;;5090252;28;20542;-77
2022/10/06 11:56:16;;;;;;;10.57;1.30;;;19.10;1.00;;;;;;5072569;28;20440;-77
2022/10/06 11:58:54;;;;;;;10.70;3.30;;;19.10;1.00;;;;;;5072553;28;20412;-77
2022/10/06 12:01:38;;;;;;;4.87;1.03;;;19.00;1.00;;;;;;5075292;28;20413;-77
2022/10/06 12:04:09;;;;;;;3.93;1.13;;;18.90;1.00;;;;;;5080515;28;20920;-77
2022/10/06 12:06:43;;;;;;;12.47;1.20;;;18.70;1.00;;;;;;5074192;28;20417;-77
2022/10/06 12:09:24;;;;;;;4.33;1.33;;;18.70;1.00;;;;;;5087040;28;20410;-77
2022/10/06 12:11:57;;;;;;;4.93;1.33;;;18.70;1.00;;;;;;5085116;28;20484;-77
2022/10/06 12:14:32;;;;;;;4.13;1.23;;;18.70;1.00;;;;;;5082773;28;20442;-77
2022/10/06 12:17:30;;;;;;;6.70;2.13;;;18.80;1.00;;;;;;5074055;28;20787;-78
2022/10/06 12:20:07;;;;;;;4.80;1.30;;;18.90;1.00;;;;;;5008909;28;20797;-78
2022/10/06 12:26:25;;;;;;;6.57;1.10;;;19.20;1.00;;;;;;5005688;28;20865;-79
2022/10/06 12:29:34;;;;;;;2.53;1.20;;;19.30;1.00;;;;;;5008293;28;20435;-78
2022/10/06 12:32:46;;;;;;;4.70;1.17;;;19.30;1.00;;;;;;5002559;28;20439;-78
2022/10/06 12:38:33;;;;;;;5.40;1.23;;;19.00;1.00;;;;;;5010824;28;20916;-78
2022/10/06 12:41:12;;;;;;;8.33;1.57;;;19.00;1.00;;;;;;5004040;28;20434;-78
2022/10/06 12:47:40;;;;;;;4.93;0.90;;;19.10;1.00;;;;;;5008266;28;20385;-78
2022/10/06 12:50:29;;;;;;;6.80;1.40;;;19.10;1.00;;;;;;4996235;28;20844;-75
2022/10/06 12:53:38;;;;;;;6.57;1.37;;;19.20;1.00;;;;;;4997119;28;21174;-77
2022/10/06 12:56:30;;;;;;;7.03;1.03;;;19.40;1.00;;;;;;5016270;28;20432;-76
2022/10/06 12:58:57;;;;;;;5.83;1.27;;;19.40;1.00;;;;;;5084842;28;20402;-76
2022/10/06 13:01:24;;;;;;;7.57;1.27;;;19.50;1.00;;;;;;5079612;28;20503;-78
2022/10/06 13:03:52;;;;;;;8.43;1.40;;;19.60;1.00;;;;;;5080439;28;20433;-78
2022/10/06 13:06:24;;;;;;;6.33;1.60;;;19.60;1.00;;;;;;5085476;28;20974;-77
2022/10/06 13:09:13;;;;;;;11.30;1.60;;;19.70;1.00;;;;;;5088006;28;21007;-77
2022/10/06 13:11:41;;;;;;;9.67;1.77;;;19.90;1.00;;;;;;5078983;28;20459;-77
2022/10/06 13:14:23;;;;;;;5.47;1.33;;;20.00;1.00;;;;;;5079219;28;20890;-77
2022/10/06 13:16:49;;;;;;;9.23;1.20;;;20.00;1.00;;;;;;5079510;28;20467;-76
2022/10/06 13:23:02;;;;;;;6.53;1.40;;;20.10;1.00;;;;;;5082374;28;20206;-77
2022/10/06 13:25:56;;;;;;;6.70;1.00;;;20.10;1.00;;;;;;5083596;28;20453;-76
2022/10/06 13:28:41;;;;;;;6.73;1.10;;;20.10;1.00;;;;;;5078457;28;20959;-78
2022/10/06 13:31:27;;;;;;;12.80;1.50;;;20.10;1.00;;;;;;5076904;28;20416;-77
2022/10/06 13:34:12;;;;;;;9.17;1.50;;;20.10;1.00;;;;;;5083363;28;20456;-76
2022/10/06 13:36:54;;;;;;;5.60;1.00;;;20.20;1.00;;;;;;5078813;28;20420;-77
2022/10/06 13:39:26;;;;;;;5.97;1.10;;;20.10;1.00;;;;;;5089489;28;20954;-76
2022/10/06 13:41:59;;;;;;;4.50;1.00;;;20.00;1.00;;;;;;5094224;28;20927;-76
2022/10/06 13:44:48;;;;;;;6.43;1.20;;;19.90;1.00;;;;;;5075764;28;20818;-77
2022/10/06 13:47:20;;;;;;;7.10;1.07;;;20.00;1.00;;;;;;5083653;28;20424;-76
2022/10/06 13:50:17;;;;;;;6.57;1.20;;;20.00;1.00;;;;;;5074393;28;20432;-76
2022/10/06 13:52:45;;;;;;;9.90;1.30;;;19.90;1.00;;;;;;5092392;28;20456;-75
2022/10/06 13:55:17;;;;;;;3.03;1.07;;;19.80;1.00;;;;;;5096077;28;20368;-76
2022/10/06 13:58:08;;;;;;;3.57;1.10;;;19.90;1.00;;;;;;5080302;28;20928;-76
2022/10/06 14:00:55;;;;;;;4.17;0.93;;;19.70;1.00;;;;;;5088840;28;20788;-77
2022/10/06 14:03:27;;;;;;;9.23;1.50;;;19.70;1.00;;;;;;5092912;28;20470;-78
2022/10/06 14:09:52;;;;;;;6.40;1.23;;;19.60;1.00;;;;;;5090742;28;20921;-77
2022/10/06 14:12:23;;;;;;;2.80;0.90;;;19.70;1.00;;;;;;5094671;28;20402;-77
2022/10/06 14:14:53;;;;;;;7.63;1.10;;;19.80;1.00;;;;;;5079712;28;20853;-77
2022/10/06 14:17:26;;;;;;;3.70;1.00;;;20.00;1.00;;;;;;5089337;28;20428;-77
2022/10/06 14:19:52;;;;;;;3.20;1.00;;;19.90;1.00;;;;;;5079726;28;20395;-76
2022/10/06 14:22:37;;;;;;;8.63;1.37;;;19.90;1.00;;;;;;5088817;28;20787;-77
2022/10/06 14:25:11;;;;;;;7.73;1.37;;;19.90;1.00;;;;;;5085673;28;20657;-76
2022/10/06 14:27:37;;;;;;;4.40;0.80;;;19.90;1.00;;;;;;5088275;28;20477;-76
2022/10/06 14:30:11;;;;;;;4.80;1.00;;;19.90;1.00;;;;;;5077767;28;20409;-76
2022/10/06 14:33:22;;;;;;;3.23;0.90;;;19.90;1.00;;;;;;5087268;28;20338;-77
2022/10/06 14:35:53;;;;;;;14.10;1.20;;;20.00;1.00;;;;;;5077611;28;20746;-77
2022/10/06 14:38:41;;;;;;;4.80;1.00;;;20.00;1.00;;;;;;5090975;28;20409;-77
2022/10/06 14:41:06;;;;;;;10.93;1.37;;;19.90;1.00;;;;;;5075788;28;20409;-77
2022/10/06 14:44:04;;;;;;;5.27;1.33;;;20.00;1.00;;;;;;5078990;28;20436;-77
2022/10/06 14:46:53;;;;;;;2.70;0.80;;;20.00;1.00;;;;;;5076180;28;20153;-77
2022/10/06 14:49:24;;;;;;;5.43;1.23;;;20.00;1.00;;;;;;5076010;28;20936;-76
2022/10/06 14:51:55;;;;;;;6.17;1.17;;;19.90;1.00;;;;;;5074115;28;20533;-78
2022/10/06 14:54:21;;;;;;;5.27;1.10;;;19.80;1.00;;;;;;5080722;28;20976;-76
2022/10/06 14:56:56;;;;;;;7.10;1.33;;;19.80;1.00;;;;;;5090597;28;20507;-75
2022/10/06 14:59:23;;;;;;;3.93;1.00;;;19.90;1.00;;;;;;5074396;28;20812;-74
2022/10/06 15:01:49;;;;;;;1.53;0.77;;;19.90;1.00;;;;;;5074153;28;20855;-75
2022/10/06 15:04:22;;;;;;;11.80;1.57;;;20.00;1.00;;;;;;5082315;28;20912;-75
2022/10/06 15:10:23;;;;;;;6.23;1.97;;;20.00;1.00;;;;;;5076159;28;20466;-78
2022/10/06 15:12:54;;;;;;;14.23;1.10;;;20.00;1.00;;;;;;5083498;28;20450;-77
2022/10/06 15:15:23;;;;;;;4.13;1.37;;;20.00;1.00;;;;;;5082714;28;20396;-74
2022/10/06 15:17:53;;;;;;;3.90;1.30;;;20.00;1.00;;;;;;5085440;28;20832;-76
2022/10/06 15:20:23;;;;;;;4.17;1.27;;;20.10;1.00;;;;;;5075297;28;20882;-76
2022/10/06 15:22:49;;;;;;;8.20;1.37;;;20.50;1.00;;;;;;5086249;28;20400;-77
2022/10/06 15:31:08;;;;;;;4.47;0.90;;;23.20;1.00;;;;;;5070802;28;20410;-76
2022/10/06 15:33:42;;;;;;;5.77;1.10;;;24.20;1.00;;;;;;5056044;28;20460;-76
2022/10/06 15:36:19;;;;;;;4.80;1.07;;;24.80;1.00;;;;;;5054184;28;20217;-76
2022/10/06 15:38:57;;;;;;;3.43;1.00;;;25.70;1.00;;;;;;5061787;28;20456;-76
2022/10/06 15:41:24;;;;;;;5.27;1.20;;;26.10;1.00;;;;;;5068520;28;20494;-76
2022/10/06 15:43:54;;;;;;;3.37;0.97;;;26.30;1.00;;;;;;5070956;28;20519;-77
2022/10/06 15:46:27;;;;;;;5.83;1.37;;;26.90;1.00;;;;;;5057032;28;20423;-77
2022/10/06 15:48:59;;;;;;;4.13;1.47;;;27.40;1.00;;;;;;5059234;28;20528;-77
2022/10/06 15:51:28;;;;;;;3.20;1.20;;;27.80;1.00;;;;;;5064434;28;21109;-77
2022/10/06 15:53:59;;;;;;;6.03;0.93;;;27.90;1.00;;;;;;5053771;28;20563;-76
2022/10/06 15:56:36;;;;;;;11.37;2.13;;;27.40;1.00;;;;;;5055161;28;20437;-76
2022/10/06 15:59:11;;;;;;;6.47;1.37;;;26.50;1.00;;;;;;5062279;28;20433;-75
2022/10/06 16:01:42;;;;;;;5.60;1.30;;;25.80;1.00;;;;;;5069772;28;20451;-77
2022/10/06 16:04:25;;;;;;;3.77;1.10;;;25.10;1.00;;;;;;5074191;28;20495;-76
2022/10/06 16:06:55;;;;;;;4.80;1.00;;;24.20;1.00;;;;;;5074318;28;20441;-76
2022/10/06 16:09:27;;;;;;;5.13;1.40;;;23.50;1.00;;;;;;5080175;28;20416;-78
2022/10/06 16:11:54;;;;;;;6.53;1.03;;;22.80;1.00;;;;;;5081012;28;21115;-77
2022/10/06 16:14:20;;;;;;;6.10;1.10;;;22.20;1.00;;;;;;5088734;28;20962;-76
2022/10/06 16:16:47;;;;;;;10.00;1.37;;;21.60;1.00;;;;;;5076953;28;20439;-76
2022/10/06 16:19:14;;;;;;;7.13;1.00;;;21.00;1.00;;;;;;5077841;28;20419;-76
2022/10/06 16:22:12;;;;;;;6.70;1.57;;;20.60;1.00;;;;;;5079977;28;20787;-76
2022/10/06 16:24:41;;;;;;;6.63;2.23;;;20.00;1.00;;;;;;5080608;28;20517;-76
2022/10/06 16:27:13;;;;;;;11.37;2.40;;;19.60;1.00;;;;;;5077457;28;20430;-77
2022/10/06 16:29:39;;;;;;;9.40;1.80;;;19.10;1.00;;;;;;5074024;28;20524;-75
2022/10/06 16:32:05;;;;;;;8.23;1.33;;;18.70;1.00;;;;;;5080135;28;20416;-76
2022/10/06 16:34:35;;;;;;;9.03;1.80;;;18.30;1.00;;;;;;5082511;28;20443;-76
2022/10/06 16:37:17;;;;;;;10.33;1.50;;;17.90;1.00;;;;;;5088840;28;20401;-76
2022/10/06 16:39:47;;;;;;;10.10;1.53;;;17.50;1.00;;;;;;5078675;28;20499;-75
2022/10/06 16:42:13;;;;;;;9.50;1.40;;;17.20;1.00;;;;;;5076565;28;21002;-75
2022/10/06 16:44:47;;;;;;;7.97;1.50;;;16.90;1.00;;;;;;5082756;28;20507;-75
2022/10/06 16:47:17;;;;;;;8.87;1.40;;;16.60;1.00;;;;;;5079647;28;20634;-74
2022/10/06 16:49:43;;;;;;;8.53;1.70;;;16.30;1.00;;;;;;5078620;28;20425;-75
2022/10/06 16:52:11;;;;;;;7.83;1.30;;;16.10;1.00;;;;;;5076272;28;20475;-74
2022/10/06 16:54:47;;;;;;;20.73;3.53;;;15.80;1.00;;;;;;5088392;28;20190;-74
2022/10/06 16:57:17;;;;;;;10.70;1.33;;;15.60;1.00;;;;;;5077660;28;20866;-74
2022/10/06 16:59:43;;;;;;;7.20;1.33;;;15.40;1.00;;;;;;5087290;28;20882;-74
2022/10/06 17:02:08;;;;;;;4.20;1.27;;;15.20;1.00;;;;;;5095274;28;20435;-74